createdAt,value
2019-02-28T00:01:43.166Z,3.90
2019-02-28T00:04:12.711Z,3.80
2019-02-28T00:06:43.999Z,3.60
2019-02-28T00:11:40.852Z,3.50
2019-02-28T00:14:09.740Z,3.50
2019-02-28T00:16:38.704Z,3.20
2019-02-28T00:19:07.557Z,3.10
2019-02-28T00:21:37.373Z,3.10
2019-02-28T00:24:06.991Z,3.00
2019-02-28T00:26:35.915Z,3.10
2019-02-28T00:29:04.850Z,3.20
2019-02-28T00:34:05.487Z,3.10
2019-02-28T00:36:33.088Z,3.10
2019-02-28T00:41:30.382Z,3.30
2019-02-28T00:43:59.057Z,3.40
2019-02-28T00:48:56.605Z,3.30
2019-02-28T00:53:53.964Z,3.20
2019-02-28T00:56:22.871Z,3.20
2019-02-28T00:58:51.736Z,3.20
2019-02-28T01:01:20.874Z,3.20
2019-02-28T01:03:49.586Z,3.30
2019-02-28T01:06:18.475Z,3.30
2019-02-28T01:08:47.389Z,3.40
2019-02-28T01:11:16.361Z,3.30
2019-02-28T01:16:16.055Z,3.30
2019-02-28T01:18:44.767Z,3.30
2019-02-28T01:21:13.487Z,3.30
2019-02-28T01:26:11.731Z,3.10
2019-02-28T01:31:11.620Z,3.00
2019-02-28T01:33:40.706Z,2.90
2019-02-28T01:38:40.014Z,3.00
2019-02-28T01:41:11.245Z,3.00
2019-02-28T01:43:39.674Z,2.90
2019-02-28T01:46:08.754Z,3.00
2019-02-28T01:48:37.729Z,3.00
2019-02-28T01:51:15.859Z,3.10
2019-02-28T01:53:44.812Z,3.20
2019-02-28T01:56:13.905Z,3.20
2019-02-28T02:01:11.362Z,3.20
2019-02-28T02:03:40.923Z,3.20
2019-02-28T02:06:10.760Z,3.00
2019-02-28T02:08:39.674Z,3.00
2019-02-28T02:11:10.021Z,2.90
2019-02-28T02:13:41.834Z,2.80
2019-02-28T02:16:10.932Z,2.80
2019-02-28T02:18:40.327Z,2.70
2019-02-28T02:23:39.183Z,2.60
2019-02-28T02:26:08.394Z,2.60
2019-02-28T02:28:38.854Z,2.60
2019-02-28T02:31:07.836Z,2.60
2019-02-28T02:33:36.839Z,2.60
2019-02-28T02:36:05.978Z,2.60
2019-02-28T02:38:40.108Z,2.70
2019-02-28T02:41:05.859Z,2.90
2019-02-28T02:46:03.691Z,2.80
2019-02-28T02:48:32.659Z,2.80
2019-02-28T02:51:01.820Z,2.90
2019-02-28T02:53:30.763Z,2.80
2019-02-28T02:56:03.606Z,2.70
2019-02-28T02:58:30.550Z,2.70
2019-02-28T03:01:01.102Z,2.60
2019-02-28T03:03:29.906Z,2.60
2019-02-28T03:08:27.339Z,2.60
2019-02-28T03:10:56.362Z,2.60
2019-02-28T03:13:28.536Z,2.70
2019-02-28T03:15:59.308Z,2.70
2019-02-28T03:18:28.205Z,2.60
2019-02-28T03:20:57.332Z,2.60
2019-02-28T03:23:26.388Z,2.30
2019-02-28T03:25:55.297Z,2.30
2019-02-28T03:30:52.777Z,2.30
2019-02-28T03:33:27.484Z,2.50
2019-02-28T03:35:52.097Z,2.50
2019-02-28T03:38:21.506Z,2.60
2019-02-28T03:43:19.239Z,2.70
2019-02-28T03:45:48.152Z,2.90
2019-02-28T03:48:17.504Z,2.70
2019-02-28T03:53:19.596Z,2.70
2019-02-28T03:55:45.557Z,2.80
2019-02-28T03:58:14.662Z,2.70
2019-02-28T04:00:43.855Z,2.80
2019-02-28T04:03:12.964Z,2.70
2019-02-28T04:05:42.158Z,2.70
2019-02-28T04:08:11.256Z,2.70
2019-02-28T04:13:08.980Z,2.70
2019-02-28T04:15:37.942Z,2.60
2019-02-28T04:18:08.427Z,2.70
2019-02-28T04:20:40.155Z,2.70
2019-02-28T04:23:15.035Z,2.70
2019-02-28T04:25:45.658Z,2.60
2019-02-28T04:28:19.083Z,2.50
2019-02-28T04:30:51.702Z,2.50
2019-02-28T04:33:21.035Z,2.40
2019-02-28T04:38:20.884Z,2.30
2019-02-28T04:40:49.711Z,2.40
2019-02-28T04:43:21.884Z,2.40
2019-02-28T04:45:50.652Z,2.40
2019-02-28T04:48:19.487Z,2.50
2019-02-28T04:50:48.253Z,2.50
2019-02-28T04:53:22.558Z,2.40
2019-02-28T04:55:51.700Z,2.30
2019-02-28T05:00:56.691Z,2.10
2019-02-28T05:03:29.036Z,2.20
2019-02-28T05:05:57.058Z,2.20
2019-02-28T05:08:26.667Z,2.20
2019-02-28T05:13:26.068Z,2.30
2019-02-28T05:18:27.628Z,2.30
2019-02-28T05:28:25.737Z,2.20
2019-02-28T05:33:26.682Z,2.10
2019-02-28T05:38:49.406Z,2.10
2019-02-28T05:41:18.536Z,2.10
2019-02-28T05:43:53.714Z,2.10
2019-02-28T05:46:32.825Z,2.10
2019-02-28T05:49:04.860Z,2.10
2019-02-28T05:54:03.809Z,2.10
2019-02-28T05:56:40.068Z,2.10
2019-02-28T05:59:10.135Z,2.10
2019-02-28T06:01:39.462Z,2.10
2019-02-28T06:04:10.458Z,2.10
2019-02-28T06:06:40.700Z,2.10
2019-02-28T06:09:14.829Z,2.10
2019-02-28T06:11:47.173Z,2.10
2019-02-28T06:19:16.033Z,2.10
2019-02-28T06:21:45.447Z,2.10
2019-02-28T06:24:16.223Z,2.00
2019-02-28T06:26:45.432Z,2.10
2019-02-28T06:29:14.577Z,2.20
2019-02-28T06:31:48.638Z,2.20
2019-02-28T06:34:21.767Z,2.20
2019-02-28T06:42:00.983Z,2.10
2019-02-28T06:44:34.471Z,2.10
2019-02-28T06:47:03.840Z,2.00
2019-02-28T06:49:42.206Z,2.10
2019-02-28T06:52:17.804Z,2.10
2019-02-28T06:54:49.766Z,2.20
2019-02-28T06:59:49.234Z,2.40
2019-02-28T07:02:20.599Z,2.30
2019-02-28T07:09:49.739Z,2.50
2019-02-28T07:12:21.435Z,2.70
2019-02-28T07:17:27.013Z,2.90
2019-02-28T07:20:05.641Z,3.00
2019-02-28T07:22:40.031Z,3.10
2019-02-28T07:25:09.413Z,3.20
2019-02-28T07:27:42.778Z,3.60
2019-02-28T07:32:49.105Z,4.20
2019-02-28T07:35:20.907Z,4.60
2019-02-28T07:37:54.503Z,5.10
2019-02-28T07:40:23.824Z,5.60
2019-02-28T07:42:54.731Z,6.00
2019-02-28T07:45:24.088Z,6.60
2019-02-28T07:48:05.006Z,6.90
2019-02-28T07:50:34.250Z,7.40
2019-02-28T07:53:08.802Z,7.90
2019-02-28T07:55:37.133Z,8.40
2019-02-28T08:00:34.827Z,9.40
2019-02-28T08:03:03.582Z,9.80
2019-02-28T08:05:32.292Z,9.90
2019-02-28T08:08:01.233Z,11.10
2019-02-28T08:10:29.995Z,11.60
2019-02-28T08:13:12.461Z,11.90
2019-02-28T08:18:10.161Z,12.80
2019-02-28T08:23:08.145Z,13.60
2019-02-28T08:25:39.693Z,13.90
2019-02-28T08:28:07.802Z,14.30
2019-02-28T08:30:36.778Z,14.70
2019-02-28T08:33:08.949Z,15.00
2019-02-28T08:35:40.944Z,15.40
2019-02-28T08:38:15.749Z,15.80
2019-02-28T08:40:51.494Z,16.10
2019-02-28T08:43:26.828Z,16.40
2019-02-28T08:45:50.026Z,16.60
2019-02-28T08:48:23.658Z,16.80
2019-02-28T08:51:06.443Z,16.90
2019-02-28T08:56:14.008Z,17.10
2019-02-28T09:01:14.863Z,17.50
2019-02-28T09:03:45.987Z,17.60
2019-02-28T09:13:43.679Z,18.40
2019-02-28T09:16:13.488Z,18.30
2019-02-28T09:18:42.445Z,18.50
2019-02-28T09:21:11.116Z,18.60
2019-02-28T09:38:39.042Z,19.00
2019-02-28T09:46:15.276Z,18.40
2019-02-28T09:59:04.267Z,18.30
2019-02-28T10:01:36.214Z,18.60
2019-02-28T10:04:10.393Z,18.80
2019-02-28T10:09:31.059Z,18.80
2019-02-28T10:12:08.691Z,18.80
2019-02-28T10:17:36.349Z,19.00
2019-02-28T10:20:09.674Z,19.10
2019-02-28T10:25:12.651Z,19.30
2019-02-28T10:30:16.652Z,19.30
2019-02-28T10:32:49.286Z,19.60
2019-02-28T10:43:06.192Z,19.40
2019-02-28T10:48:28.141Z,19.20
2019-02-28T10:50:56.976Z,19.20
2019-02-28T10:53:29.506Z,19.20
2019-02-28T11:00:59.495Z,19.10
2019-02-28T11:06:13.010Z,19.40
2019-02-28T11:13:54.718Z,19.10
2019-02-28T11:21:29.824Z,19.20
2019-02-28T11:36:44.775Z,19.20
2019-02-28T11:39:21.566Z,19.20
2019-02-28T11:42:04.397Z,19.00
2019-02-28T11:44:43.479Z,18.70
2019-02-28T11:52:20.415Z,18.80
2019-02-28T12:02:23.125Z,18.60
2019-02-28T12:04:52.315Z,18.90
2019-02-28T12:09:55.704Z,19.00
2019-02-28T12:12:27.274Z,19.00
2019-02-28T12:15:02.393Z,19.00
2019-02-28T12:20:06.172Z,19.20
2019-02-28T12:22:35.541Z,18.80
2019-02-28T12:27:44.308Z,18.70
2019-02-28T12:32:46.710Z,18.80
2019-02-28T12:35:22.152Z,18.90
2019-02-28T12:37:55.012Z,18.80
2019-02-28T12:40:29.768Z,18.90
2019-02-28T12:45:37.057Z,19.20
2019-02-28T12:48:06.486Z,19.10
2019-02-28T12:50:36.894Z,18.90
2019-02-28T12:53:06.043Z,18.90
2019-02-28T12:55:40.138Z,18.80
2019-02-28T12:58:11.541Z,18.60
2019-02-28T13:03:19.458Z,18.70
2019-02-28T13:05:50.779Z,18.60
2019-02-28T13:16:01.270Z,18.60
2019-02-28T13:18:35.471Z,18.60
2019-02-28T13:21:10.657Z,18.80
2019-02-28T13:23:37.899Z,18.80
2019-02-28T13:28:39.694Z,18.90
2019-02-28T13:31:10.010Z,18.70
2019-02-28T13:33:48.634Z,18.60
2019-02-28T13:36:18.265Z,18.50
2019-02-28T13:39:04.233Z,18.50
2019-02-28T13:41:33.193Z,18.30
2019-02-28T13:46:35.458Z,18.30
2019-02-28T13:49:11.598Z,18.10
2019-02-28T13:51:42.794Z,18.10
2019-02-28T13:54:14.869Z,18.00
2019-02-28T14:04:19.362Z,18.00
2019-02-28T14:06:55.799Z,18.20
2019-02-28T14:09:25.273Z,18.20
2019-02-28T14:11:54.699Z,18.20
2019-02-28T14:16:58.364Z,18.60
2019-02-28T14:19:33.662Z,18.30
2019-02-28T14:24:38.798Z,18.30
2019-02-28T14:32:07.447Z,18.10
2019-02-28T14:34:36.684Z,18.10
2019-02-28T14:37:05.896Z,18.10
2019-02-28T14:39:34.968Z,18.20
2019-02-28T14:44:34.465Z,18.30
2019-02-28T14:52:19.396Z,19.10
2019-02-28T14:54:52.869Z,18.30
2019-02-28T14:57:41.568Z,18.20
2019-02-28T15:00:15.378Z,18.20
2019-02-28T15:07:53.780Z,18.20
2019-02-28T15:15:32.560Z,18.10
2019-02-28T15:18:04.319Z,18.00
2019-02-28T15:23:14.910Z,17.80
2019-02-28T15:25:50.743Z,17.50
2019-02-28T15:28:17.708Z,17.50
2019-02-28T15:30:49.008Z,17.50
2019-02-28T15:33:19.355Z,17.50
2019-02-28T15:38:19.660Z,17.50
2019-02-28T15:40:48.710Z,17.30
2019-02-28T15:48:20.103Z,17.20
2019-02-28T15:50:56.876Z,17.30
2019-02-28T15:53:28.610Z,17.50
2019-02-28T15:55:57.810Z,17.60
2019-02-28T15:58:27.006Z,17.40
2019-02-28T16:03:26.173Z,17.10
2019-02-28T16:10:56.533Z,16.80
2019-02-28T16:13:27.226Z,16.90
2019-02-28T16:15:57.281Z,16.90
2019-02-28T16:18:29.838Z,16.90
2019-02-28T16:26:00.381Z,16.90
2019-02-28T16:28:34.711Z,16.90
2019-02-28T16:38:35.825Z,16.70
2019-02-28T16:43:36.935Z,16.60
2019-02-28T16:48:38.400Z,16.50
2019-02-28T16:53:36.424Z,16.50
2019-02-28T16:56:10.122Z,16.40
2019-02-28T16:58:39.268Z,16.30
2019-02-28T17:01:08.308Z,16.30
2019-02-28T17:03:38.399Z,16.20
2019-02-28T17:06:15.955Z,16.20
2019-02-28T17:08:56.923Z,16.20
2019-02-28T17:11:30.088Z,16.00
2019-02-28T17:14:13.826Z,15.90
2019-02-28T17:16:48.265Z,15.90
2019-02-28T17:19:23.951Z,15.80
2019-02-28T17:21:56.352Z,15.90
2019-02-28T17:24:25.323Z,15.90
2019-02-28T17:27:11.981Z,16.10
2019-02-28T17:29:48.529Z,15.60
2019-02-28T17:32:23.949Z,15.60
2019-02-28T17:34:59.027Z,15.30
2019-02-28T17:40:05.101Z,15.20
2019-02-28T17:42:34.450Z,15.10
2019-02-28T17:54:24.170Z,14.90
2019-02-28T17:57:36.297Z,14.90
2019-02-28T18:00:41.785Z,14.80
2019-02-28T18:03:38.075Z,14.80
2019-02-28T18:09:48.108Z,14.80
2019-02-28T18:18:17.961Z,14.90
2019-02-28T18:21:46.834Z,14.80
2019-02-28T18:24:42.522Z,14.60
2019-02-28T18:32:43.549Z,14.60
2019-02-28T18:37:52.057Z,14.60
2019-02-28T18:40:25.503Z,14.60
2019-02-28T18:42:58.265Z,14.50
2019-02-28T18:45:37.915Z,14.50
2019-02-28T18:48:18.723Z,14.50
2019-02-28T18:50:48.402Z,14.30
2019-02-28T18:53:20.447Z,14.40
2019-02-28T18:56:04.271Z,14.30
2019-02-28T18:58:35.786Z,14.30
2019-02-28T19:01:05.072Z,14.30
2019-02-28T19:03:34.290Z,14.40
2019-02-28T19:06:03.694Z,14.40
2019-02-28T19:08:42.968Z,14.30
2019-02-28T19:11:12.308Z,14.30
2019-02-28T19:13:47.519Z,14.20
2019-02-28T19:21:19.561Z,14.00
2019-02-28T19:23:50.464Z,14.10
2019-02-28T19:26:23.192Z,14.10
2019-02-28T19:28:54.854Z,14.00
2019-02-28T19:31:35.069Z,14.00
2019-02-28T19:34:04.319Z,14.00
2019-02-28T19:36:41.003Z,14.00
2019-02-28T19:39:12.488Z,14.00
2019-02-28T19:46:44.557Z,13.80
2019-02-28T19:49:18.353Z,13.70
2019-02-28T19:51:54.564Z,13.70
2019-02-28T19:54:23.711Z,13.60
2019-02-28T19:59:28.472Z,13.40
2019-02-28T20:04:28.896Z,13.20
2019-02-28T20:12:05.707Z,13.40
2019-02-28T20:14:36.789Z,13.30
2019-02-28T20:17:21.734Z,13.20
2019-02-28T20:20:03.878Z,13.20
2019-02-28T20:22:35.752Z,13.20
2019-02-28T20:25:05.690Z,13.30
2019-02-28T20:27:35.071Z,13.30
2019-02-28T20:30:04.486Z,13.30
2019-02-28T20:32:33.699Z,13.60
2019-02-28T20:37:32.736Z,13.20
2019-02-28T20:40:01.977Z,13.20
2019-02-28T20:42:38.579Z,13.10
2019-02-28T20:45:38.952Z,13.00
2019-02-28T20:53:29.093Z,13.20
2019-02-28T20:56:01.005Z,13.20
2019-02-28T20:58:43.617Z,13.20
2019-02-28T21:01:48.215Z,13.20
2019-02-28T21:07:00.228Z,13.10
2019-02-28T21:09:44.952Z,12.90
2019-02-28T21:12:12.361Z,12.90
2019-02-28T21:14:51.541Z,12.80
2019-02-28T21:19:52.588Z,12.70
2019-02-28T21:24:50.850Z,12.70
2019-02-28T21:32:21.015Z,12.60
2019-02-28T21:34:49.986Z,12.30
2019-02-28T21:37:19.051Z,12.40
2019-02-28T21:39:50.360Z,12.50
2019-02-28T21:42:23.591Z,12.40
2019-02-28T21:44:57.618Z,12.30
2019-02-28T21:55:14.266Z,11.80
2019-02-28T21:57:43.455Z,12.00
2019-02-28T22:00:19.558Z,12.10
2019-02-28T22:10:23.223Z,12.30
2019-02-28T22:12:55.391Z,12.40
2019-02-28T22:15:25.957Z,12.40
2019-02-28T22:20:30.750Z,12.30
2019-02-28T22:25:40.510Z,12.30
2019-02-28T22:28:09.685Z,12.20
2019-02-28T22:36:34.962Z,12.40
2019-02-28T22:41:33.478Z,12.30
2019-02-28T22:44:02.810Z,12.40
2019-02-28T22:46:39.403Z,12.30
2019-02-28T22:51:40.147Z,12.10
2019-02-28T22:54:15.487Z,12.10
2019-02-28T23:04:46.647Z,11.80
2019-02-28T23:07:17.835Z,11.70
2019-02-28T23:19:59.959Z,11.40
2019-02-28T23:22:48.147Z,11.50
2019-02-28T23:25:17.531Z,11.50
2019-02-28T23:27:48.212Z,11.30
2019-02-28T23:33:06.670Z,11.20
2019-02-28T23:35:57.656Z,11.20
2019-02-28T23:38:33.772Z,11.20
2019-02-28T23:41:18.812Z,11.00
2019-02-28T23:46:25.307Z,10.60
2019-02-28T23:51:25.117Z,10.70
2019-02-28T23:53:54.463Z,10.60
2019-02-28T23:56:26.823Z,10.60
2019-02-28T23:58:56.201Z,10.20
